Time;durP1;ratioP1;P1;durP2;ratioP2;P2;SDS_P1;SDS_P2;PMS_P1;PMS_P2;Temp;Humidity;BMP_temperature;BMP_pressure;BME280_temperature;BME280_humidity;BME280_pressure;Samples;Min_cycle;Max_cycle;Signal;HPM_P1;HPM_P2
2023/12/18 00:00:29;;;;;;;12.60;8.80;;;;;;;10.81;93.27;101832.21;108187;1277;22013;-60
2023/12/18 00:02:54;;;;;;;11.40;7.80;;;;;;;10.83;93.41;101828.89;108252;1287;22053;-62
2023/12/18 00:05:20;;;;;;;13.70;9.00;;;;;;;10.85;93.55;101828.73;108371;1282;22080;-60
2023/12/18 00:07:46;;;;;;;14.60;7.80;;;;;;;10.88;93.66;101828.41;108121;1287;21985;-63
2023/12/18 00:10:11;;;;;;;13.80;8.20;;;;;;;10.91;93.69;101837.92;108157;1278;21995;-61
2023/12/18 00:12:37;;;;;;;11.90;8.10;;;;;;;10.94;93.74;101843.57;108182;1287;21993;-60
2023/12/18 00:15:03;;;;;;;13.60;8.30;;;;;;;10.96;93.92;101845.52;108102;1287;21997;-59
2023/12/18 00:17:29;;;;;;;15.30;9.00;;;;;;;11.00;93.84;101843.46;108145;1287;21990;-61
2023/12/18 00:19:55;;;;;;;13.10;8.40;;;;;;;11.03;93.87;101844.02;108077;1287;21996;-62
2023/12/18 00:22:20;;;;;;;13.30;9.00;;;;;;;11.03;93.89;101843.14;108110;1287;22005;-61
2023/12/18 00:24:46;;;;;;;11.70;7.60;;;;;;;11.04;94.16;101843.84;108195;1287;21987;-62
2023/12/18 00:27:11;;;;;;;13.90;9.10;;;;;;;11.04;93.93;101841.20;108147;1287;21984;-63
2023/12/18 00:29:39;;;;;;;15.00;8.80;;;;;;;11.06;93.83;101841.22;108238;1287;22042;-62
2023/12/18 00:32:05;;;;;;;14.30;8.20;;;;;;;11.07;94.10;101839.83;108258;1284;21989;-64
2023/12/18 00:34:31;;;;;;;13.70;7.90;;;;;;;11.06;94.11;101835.25;108159;1281;22027;-60
2023/12/18 00:36:57;;;;;;;13.20;8.50;;;;;;;11.09;94.08;101834.73;108149;1287;22098;-62
2023/12/18 00:39:22;;;;;;;15.50;9.40;;;;;;;11.11;94.33;101827.57;108127;1287;22023;-61
2023/12/18 00:41:48;;;;;;;12.90;9.00;;;;;;;11.12;94.31;101825.81;108134;1288;22007;-64
2023/12/18 00:44:13;;;;;;;12.40;8.10;;;;;;;11.14;94.17;101825.31;108194;1287;21989;-60
2023/12/18 00:46:39;;;;;;;14.60;8.40;;;;;;;11.17;94.14;101824.80;108147;1278;22001;-61
2023/12/18 00:49:05;;;;;;;13.90;9.00;;;;;;;11.18;94.02;101826.23;108126;1288;21995;-60
2023/12/18 00:51:30;;;;;;;14.90;9.70;;;;;;;11.17;94.33;101819.36;108127;1278;23298;-60
2023/12/18 00:53:56;;;;;;;13.00;8.30;;;;;;;11.16;94.36;101811.27;108189;1287;22044;-60
2023/12/18 00:56:21;;;;;;;14.30;8.90;;;;;;;11.18;94.20;101806.72;108182;1287;21984;-60
2023/12/18 00:58:47;;;;;;;15.60;9.20;;;;;;;11.16;94.17;101800.04;108198;1287;22006;-63
2023/12/18 01:01:12;;;;;;;13.10;8.80;;;;;;;11.16;94.11;101787.73;108238;1287;22002;-63
2023/12/18 01:03:38;;;;;;;17.10;9.40;;;;;;;11.16;94.06;101778.08;108141;1287;24332;-60
2023/12/18 01:06:05;;;;;;;14.40;8.20;;;;;;;11.15;94.25;101762.08;108118;1288;21991;-60
2023/12/18 01:08:31;;;;;;;15.10;10.50;;;;;;;11.13;94.23;101758.89;108165;1287;21999;-63
2023/12/18 01:10:56;;;;;;;14.90;9.90;;;;;;;11.10;94.39;101753.95;108259;1287;21992;-62
2023/12/18 01:13:22;;;;;;;16.50;10.70;;;;;;;11.05;94.82;101741.80;108212;1287;21987;-62
2023/12/18 01:15:48;;;;;;;15.40;10.20;;;;;;;11.00;95.19;101734.56;108208;1287;23080;-62
2023/12/18 01:18:16;;;;;;;17.30;10.30;;;;;;;10.99;94.85;101735.44;108104;1288;22001;-62
2023/12/18 01:20:42;;;;;;;14.20;9.00;;;;;;;10.96;94.78;101738.74;108182;1287;21995;-60
2023/12/18 01:23:07;;;;;;;14.70;9.50;;;;;;;10.95;94.76;101739.09;108138;1281;21989;-60
2023/12/18 01:25:33;;;;;;;14.70;9.40;;;;;;;10.91;95.03;101736.77;108279;1287;22027;-60
2023/12/18 01:27:59;;;;;;;14.90;9.70;;;;;;;10.86;95.44;101738.31;108225;1286;22021;-60
2023/12/18 01:30:25;;;;;;;13.20;8.80;;;;;;;10.77;96.39;101739.64;108282;1287;21991;-63
2023/12/18 01:32:51;;;;;;;15.50;9.30;;;;;;;10.80;95.67;101740.90;108143;1288;22006;-60
2023/12/18 01:35:17;;;;;;;17.20;9.30;;;;;;;10.79;95.82;101744.05;108122;1287;22519;-62
2023/12/18 01:37:42;;;;;;;17.10;9.10;;;;;;;10.80;95.78;101741.08;108121;1287;22053;-62
2023/12/18 01:40:09;;;;;;;13.60;8.30;;;;;;;10.78;96.04;101741.41;108102;1287;21997;-60
2023/12/18 01:42:35;;;;;;;15.50;9.20;;;;;;;10.75;96.28;101736.30;108190;1281;21989;-61
2023/12/18 01:45:00;;;;;;;14.80;8.80;;;;;;;10.77;95.97;101735.60;108081;1287;21985;-60
2023/12/18 01:47:26;;;;;;;14.00;8.40;;;;;;;10.79;95.74;101732.29;108183;1287;24405;-63
2023/12/18 01:49:51;;;;;;;12.80;8.40;;;;;;;10.81;95.74;101735.12;108038;1288;21998;-62
2023/12/18 01:52:17;;;;;;;14.30;9.10;;;;;;;10.82;95.57;101736.16;108104;1288;21992;-61
2023/12/18 01:54:43;;;;;;;12.00;7.50;;;;;;;10.82;95.58;101733.36;108077;1288;21987;-62
2023/12/18 01:57:10;;;;;;;12.60;8.00;;;;;;;10.83;95.47;101727.05;108081;1288;22000;-63
2023/12/18 01:59:39;;;;;;;14.30;8.40;;;;;;;10.86;95.19;101732.17;108156;1287;22010;-60
2023/12/18 02:02:04;;;;;;;14.20;8.50;;;;;;;10.89;95.06;101734.30;108066;1277;21994;-60
2023/12/18 02:04:30;;;;;;;12.20;7.90;;;;;;;10.88;94.62;101726.73;108069;1287;21999;-63
2023/12/18 02:06:56;;;;;;;14.30;8.80;;;;;;;10.85;94.35;101722.31;108058;1287;22006;-60
2023/12/18 02:09:21;;;;;;;14.70;7.80;;;;;;;10.81;94.01;101721.08;108113;1287;21993;-60
2023/12/18 02:11:47;;;;;;;12.90;7.70;;;;;;;10.77;93.65;101724.36;108248;1287;21987;-64
2023/12/18 02:14:13;;;;;;;12.30;7.70;;;;;;;10.75;93.49;101727.16;108283;1287;21996;-60
2023/12/18 02:16:38;;;;;;;11.10;7.10;;;;;;;10.76;93.31;101730.34;108208;1287;21990;-64
2023/12/18 02:19:04;;;;;;;12.70;7.70;;;;;;;10.75;93.23;101718.39;108162;1287;21962;-60
2023/12/18 02:21:29;;;;;;;11.60;7.50;;;;;;;10.77;92.99;101709.63;108170;1287;21991;-62
2023/12/18 02:23:55;;;;;;;11.30;7.80;;;;;;;10.76;92.80;101707.70;107437;1287;1002329;-62
2023/12/18 02:26:21;;;;;;;11.00;7.40;;;;;;;10.75;92.64;101701.19;108196;1275;22055;-60
2023/12/18 02:28:46;;;;;;;13.00;8.40;;;;;;;10.74;92.24;101695.38;108055;1287;21993;-62
2023/12/18 02:31:13;;;;;;;11.80;7.20;;;;;;;10.74;92.03;101684.66;108152;1287;23613;-60
2023/12/18 02:33:38;;;;;;;11.70;7.40;;;;;;;10.74;92.00;101676.42;108162;1285;22078;-60
2023/12/18 02:36:04;;;;;;;12.50;7.70;;;;;;;10.73;91.65;101669.03;108162;1277;21989;-63
2023/12/18 02:38:30;;;;;;;14.80;8.10;;;;;;;10.71;91.63;101665.69;108190;1288;21989;-62
2023/12/18 02:40:56;;;;;;;14.60;8.10;;;;;;;10.68;91.60;101665.31;108122;1288;22239;-62
2023/12/18 02:43:21;;;;;;;12.20;7.50;;;;;;;10.66;91.50;101656.33;108090;1285;22454;-61
2023/12/18 02:45:47;;;;;;;13.20;8.20;;;;;;;10.61;91.11;101655.95;108103;1288;22010;-63
2023/12/18 02:48:12;;;;;;;13.70;8.50;;;;;;;10.57;91.04;101662.59;108074;1287;22035;-62
2023/12/18 02:50:38;;;;;;;11.00;7.20;;;;;;;10.53;91.15;101664.66;108190;1287;21989;-60
2023/12/18 02:53:04;;;;;;;12.90;7.80;;;;;;;10.49;90.86;101665.86;108195;1287;21994;-62
2023/12/18 02:55:29;;;;;;;12.60;8.00;;;;;;;10.48;90.73;101662.16;108200;1287;22454;-63
2023/12/18 02:57:55;;;;;;;14.50;8.50;;;;;;;10.47;90.67;101660.56;108192;1287;22456;-62
2023/12/18 03:00:21;;;;;;;17.10;9.20;;;;;;;10.46;90.50;101667.05;108207;1287;21998;-62
2023/12/18 03:02:46;;;;;;;16.50;9.90;;;;;;;10.44;90.40;101668.61;108151;1287;21989;-63
2023/12/18 03:05:13;;;;;;;14.00;8.90;;;;;;;10.43;90.47;101669.66;108071;1287;21987;-60
2023/12/18 03:07:40;;;;;;;13.60;8.90;;;;;;;10.40;90.34;101666.99;108081;1287;21979;-63
2023/12/18 03:10:06;;;;;;;13.60;9.30;;;;;;;10.37;90.02;101665.20;108128;1288;21995;-63
2023/12/18 03:12:31;;;;;;;14.20;8.80;;;;;;;10.35;90.22;101672.38;108241;1288;22177;-63
2023/12/18 03:14:57;;;;;;;12.50;7.90;;;;;;;10.35;90.41;101663.77;108135;1288;21989;-60
2023/12/18 03:17:23;;;;;;;14.30;8.20;;;;;;;10.38;90.52;101660.30;108152;1287;22000;-61
2023/12/18 03:19:48;;;;;;;16.90;9.20;;;;;;;10.38;90.19;101662.41;108216;1287;22028;-60
2023/12/18 03:22:14;;;;;;;14.30;9.20;;;;;;;10.36;90.10;101659.39;108135;1287;22083;-64
2023/12/18 03:24:40;;;;;;;12.80;9.00;;;;;;;10.35;90.09;101660.78;107378;1288;1002294;-63
2023/12/18 03:27:06;;;;;;;15.10;9.10;;;;;;;10.32;89.82;101665.48;108137;1288;21989;-62
2023/12/18 03:29:32;;;;;;;13.50;8.70;;;;;;;10.30;89.80;101666.52;108166;1287;22004;-59
2023/12/18 03:31:57;;;;;;;14.30;9.10;;;;;;;10.29;89.99;101663.54;108123;1288;22021;-62
2023/12/18 03:34:23;;;;;;;15.00;9.40;;;;;;;10.22;89.84;101663.29;108096;1285;22016;-63
2023/12/18 03:36:49;;;;;;;13.80;9.10;;;;;;;10.19;89.87;101657.48;108097;1287;24176;-63
2023/12/18 03:39:14;;;;;;;12.30;8.10;;;;;;;10.17;89.85;101653.42;108084;1278;22000;-60
2023/12/18 03:41:40;;;;;;;14.80;9.20;;;;;;;10.09;89.89;101649.48;108124;1286;21992;-60
2023/12/18 03:44:05;;;;;;;11.80;8.20;;;;;;;10.09;90.00;101643.89;108085;1287;21992;-62
2023/12/18 03:46:31;;;;;;;14.50;9.80;;;;;;;10.09;90.00;101645.27;108083;1284;22003;-60
2023/12/18 03:48:56;;;;;;;13.60;8.70;;;;;;;10.09;90.26;101647.56;108108;1281;21995;-60
2023/12/18 03:51:22;;;;;;;14.20;9.20;;;;;;;10.11;90.37;101646.54;108189;1286;22083;-63
2023/12/18 03:53:48;;;;;;;13.10;8.30;;;;;;;10.13;90.46;101645.67;108094;1286;22252;-61
2023/12/18 03:56:13;;;;;;;15.20;8.90;;;;;;;10.17;90.60;101645.34;108100;1287;22033;-64
2023/12/18 03:58:39;;;;;;;15.60;9.40;;;;;;;10.17;90.94;101639.56;108164;1286;21997;-61
2023/12/18 04:01:05;;;;;;;13.00;9.30;;;;;;;10.19;91.02;101635.37;108153;1286;21990;-65
2023/12/18 04:03:30;;;;;;;13.20;8.70;;;;;;;10.19;91.22;101634.50;108117;1284;22002;-63
2023/12/18 04:05:56;;;;;;;15.50;9.90;;;;;;;10.20;91.35;101622.58;108058;1287;22034;-61
2023/12/18 04:08:21;;;;;;;16.60;9.60;;;;;;;10.19;91.41;101618.89;108059;1283;21992;-61
2023/12/18 04:10:47;;;;;;;13.40;8.70;;;;;;;10.15;91.59;101614.99;108065;1287;21988;-61
2023/12/18 04:13:12;;;;;;;15.00;9.50;;;;;;;10.12;91.87;101606.38;108104;1277;21995;-63
2023/12/18 04:15:38;;;;;;;15.50;9.20;;;;;;;10.07;91.85;101605.11;108104;1287;22212;-64
2023/12/18 04:18:08;;;;;;;17.20;9.70;;;;;;;10.13;91.88;101608.48;108089;1284;21997;-61
2023/12/18 04:20:34;;;;;;;15.10;10.00;;;;;;;10.17;91.75;101607.13;108103;1287;22181;-64
2023/12/18 04:23:00;;;;;;;14.80;9.20;;;;;;;10.19;91.71;101607.48;108091;1287;21989;-64
2023/12/18 04:25:25;;;;;;;13.20;8.70;;;;;;;10.21;91.78;101613.28;108093;1287;21986;-64
2023/12/18 04:27:52;;;;;;;15.10;8.70;;;;;;;10.23;91.62;101618.74;108083;1287;22163;-64
2023/12/18 04:30:18;;;;;;;13.80;8.80;;;;;;;10.26;91.75;101619.65;108088;1287;22010;-64
2023/12/18 04:32:44;;;;;;;13.80;8.60;;;;;;;10.25;91.77;101618.41;108163;1283;22458;-64
2023/12/18 04:35:09;;;;;;;13.50;8.20;;;;;;;10.22;91.85;101619.08;108081;1287;22384;-64
2023/12/18 04:37:35;;;;;;;18.10;10.70;;;;;;;10.20;91.81;101622.73;108155;1287;21992;-61
2023/12/18 04:40:03;;;;;;;11.90;8.30;;;;;;;10.20;91.92;101625.38;108087;1283;21977;-63
2023/12/18 04:42:29;;;;;;;15.10;8.50;;;;;;;10.19;91.97;101621.52;108102;1287;23272;-64
2023/12/18 04:44:56;;;;;;;13.40;8.60;;;;;;;10.17;91.90;101622.90;106542;1287;1002431;-64
2023/12/18 04:47:21;;;;;;;13.80;8.30;;;;;;;10.19;91.97;101624.85;108132;1280;21989;-64
2023/12/18 04:49:47;;;;;;;15.60;8.80;;;;;;;10.20;92.12;101627.31;108129;1287;21992;-61
2023/12/18 04:52:12;;;;;;;12.60;8.70;;;;;;;10.20;92.04;101624.86;108131;1287;21993;-63
2023/12/18 04:54:38;;;;;;;14.80;8.50;;;;;;;10.20;91.98;101618.02;108106;1287;21991;-63
2023/12/18 04:57:04;;;;;;;12.90;8.20;;;;;;;10.23;91.81;101607.53;108082;1287;21989;-63
2023/12/18 04:59:31;;;;;;;14.80;9.50;;;;;;;10.26;92.05;101608.08;108058;1276;21988;-60
2023/12/18 05:01:57;;;;;;;12.40;8.00;;;;;;;10.27;91.81;101614.40;108268;1277;22044;-63
2023/12/18 05:04:24;;;;;;;14.60;8.90;;;;;;;10.28;91.82;101613.00;108172;1287;22026;-64
2023/12/18 05:06:49;;;;;;;17.30;9.60;;;;;;;10.27;91.87;101611.76;108132;1277;21995;-61
2023/12/18 05:09:15;;;;;;;12.70;8.50;;;;;;;10.24;91.80;101606.48;108097;1277;23799;-63
2023/12/18 05:11:41;;;;;;;15.00;8.80;;;;;;;10.23;91.83;101606.29;108020;1283;22051;-64
2023/12/18 05:14:08;;;;;;;18.70;9.30;;;;;;;10.23;91.93;101603.65;108089;1287;22021;-63
2023/12/18 05:16:34;;;;;;;14.20;9.50;;;;;;;10.25;91.97;101603.33;108249;1283;21998;-62
2023/12/18 05:19:00;;;;;;;14.90;9.30;;;;;;;10.25;91.97;101598.24;108298;1287;21977;-62
2023/12/18 05:21:25;;;;;;;11.70;7.60;;;;;;;10.26;92.12;101591.77;108254;1287;21992;-61
2023/12/18 05:23:51;;;;;;;13.50;9.30;;;;;;;10.28;92.02;101582.14;108114;1287;21992;-62
2023/12/18 05:26:16;;;;;;;13.40;8.50;;;;;;;10.29;91.92;101577.05;108193;1287;21996;-63
2023/12/18 05:28:42;;;;;;;14.40;9.30;;;;;;;10.27;91.84;101569.67;108071;1287;22009;-60
2023/12/18 05:31:11;;;;;;;13.40;9.10;;;;;;;10.28;92.00;101565.99;108098;1288;21997;-63
2023/12/18 05:33:37;;;;;;;14.50;9.00;;;;;;;10.29;91.84;101557.39;108131;1287;21983;-63
2023/12/18 05:36:02;;;;;;;13.70;9.50;;;;;;;10.28;91.81;101561.42;108043;1287;21984;-63
2023/12/18 05:38:29;;;;;;;14.20;8.10;;;;;;;10.28;91.85;101569.67;108055;1280;21999;-64
2023/12/18 05:40:57;;;;;;;14.80;9.00;;;;;;;10.29;91.89;101579.51;107957;1287;21995;-62
2023/12/18 05:43:22;;;;;;;14.90;9.00;;;;;;;10.32;91.73;101579.17;108109;1278;24037;-60
2023/12/18 05:45:48;;;;;;;13.40;8.70;;;;;;;10.31;91.63;101576.18;108108;1275;21995;-60
2023/12/18 05:48:13;;;;;;;15.40;9.30;;;;;;;10.33;91.53;101576.20;108137;1287;21992;-61
2023/12/18 05:50:39;;;;;;;14.40;9.30;;;;;;;10.31;91.43;101570.05;108108;1283;21988;-61
2023/12/18 05:53:04;;;;;;;15.00;8.90;;;;;;;10.29;91.37;101563.55;108158;1287;21997;-62
2023/12/18 05:55:30;;;;;;;16.10;9.20;;;;;;;10.26;91.21;101566.32;108121;1276;22002;-62
2023/12/18 05:57:56;;;;;;;15.50;8.50;;;;;;;10.25;91.25;101568.25;108153;1277;21988;-63
2023/12/18 06:00:22;;;;;;;12.10;8.00;;;;;;;10.25;91.34;101564.39;108173;1287;21992;-62
2023/12/18 06:02:47;;;;;;;13.40;9.20;;;;;;;10.27;91.35;101565.45;108137;1287;21996;-63
2023/12/18 06:05:13;;;;;;;13.00;8.50;;;;;;;10.29;91.27;101563.19;108107;1287;22002;-62
2023/12/18 06:07:40;;;;;;;11.40;7.80;;;;;;;10.30;90.92;101553.90;108069;1287;22003;-63
2023/12/18 06:10:08;;;;;;;12.70;7.70;;;;;;;10.31;90.80;101555.31;108161;1287;21989;-63
2023/12/18 06:12:34;;;;;;;13.60;7.50;;;;;;;10.33;90.81;101557.79;108159;1288;23238;-61
2023/12/18 06:15:00;;;;;;;12.80;8.10;;;;;;;10.34;90.88;101556.20;108119;1284;22046;-62
2023/12/18 06:17:26;;;;;;;11.10;7.70;;;;;;;10.34;90.63;101552.52;108135;1287;21993;-62
2023/12/18 06:19:51;;;;;;;14.50;8.50;;;;;;;10.29;90.09;101555.13;108136;1287;21994;-61
2023/12/18 06:22:17;;;;;;;11.50;7.50;;;;;;;10.28;89.76;101553.01;107416;1287;1003200;-61
2023/12/18 06:24:42;;;;;;;12.50;7.30;;;;;;;10.32;89.56;101554.98;108155;1287;22038;-61
2023/12/18 06:27:08;;;;;;;11.90;6.20;;;;;;;10.34;89.37;101559.90;108146;1287;21986;-60
2023/12/18 06:29:33;;;;;;;10.90;6.50;;;;;;;10.36;88.83;101561.48;108068;1287;21988;-60
2023/12/18 06:31:59;;;;;;;8.80;6.30;;;;;;;10.39;88.84;101565.57;108086;1288;21974;-63
2023/12/18 06:34:25;;;;;;;11.40;6.50;;;;;;;10.40;88.03;101572.42;108043;1287;22013;-63
2023/12/18 06:36:51;;;;;;;12.00;5.90;;;;;;;10.45;88.40;101577.02;107338;1286;1002928;-63
2023/12/18 06:39:16;;;;;;;11.10;6.20;;;;;;;10.49;88.46;101579.34;108007;1288;117082;-61
2023/12/18 06:41:42;;;;;;;10.80;6.80;;;;;;;10.53;88.39;101576.91;108124;1287;21989;-61
2023/12/18 06:44:07;;;;;;;9.00;6.10;;;;;;;10.57;88.53;101573.24;108085;1276;21985;-62
2023/12/18 06:46:34;;;;;;;10.70;7.40;;;;;;;10.59;88.51;101572.56;108109;1278;22007;-64
2023/12/18 06:49:01;;;;;;;10.50;6.50;;;;;;;10.58;87.83;101576.77;108213;1288;21983;-63
2023/12/18 06:51:27;;;;;;;11.30;6.50;;;;;;;10.58;87.52;101577.48;107314;1287;1002019;-62
2023/12/18 06:53:52;;;;;;;12.00;6.50;;;;;;;10.59;87.39;101568.70;108126;1287;22000;-62
2023/12/18 06:56:18;;;;;;;12.10;7.00;;;;;;;10.58;86.42;101569.93;108088;1287;21986;-61
2023/12/18 06:58:43;;;;;;;11.20;6.20;;;;;;;10.59;85.70;101569.05;108157;1280;21994;-62
2023/12/18 07:01:09;;;;;;;9.70;6.60;;;;;;;10.64;86.14;101565.04;108160;1287;21993;-61
2023/12/18 07:03:35;;;;;;;9.60;6.30;;;;;;;10.70;86.91;101562.27;108102;1286;21989;-62
2023/12/18 07:06:01;;;;;;;8.80;5.90;;;;;;;10.76;87.80;101549.50;108185;1278;21986;-62
2023/12/18 07:08:29;;;;;;;8.90;5.80;;;;;;;10.82;87.69;101548.13;108138;1287;21996;-63
2023/12/18 07:10:57;;;;;;;10.30;6.40;;;;;;;10.85;87.46;101544.81;105137;1282;1003086;-63
2023/12/18 07:13:23;;;;;;;10.60;6.70;;;;;;;10.89;87.86;101543.76;108183;1287;22011;-60
2023/12/18 07:15:49;;;;;;;12.20;6.60;;;;;;;10.93;88.14;101547.65;108114;1280;21955;-60
2023/12/18 07:18:14;;;;;;;10.30;7.00;;;;;;;10.93;88.04;101546.08;108154;1287;21992;-60
2023/12/18 07:20:41;;;;;;;12.50;6.80;;;;;;;10.93;87.94;101541.86;108094;1287;21993;-62
2023/12/18 07:23:08;;;;;;;10.50;7.00;;;;;;;10.93;87.77;101533.26;108156;1288;21994;-60
2023/12/18 07:25:33;;;;;;;12.70;6.60;;;;;;;10.97;88.06;101533.63;108063;1287;22451;-60
2023/12/18 07:27:59;;;;;;;11.80;6.90;;;;;;;11.01;88.04;101534.52;108093;1287;21986;-60
2023/12/18 07:30:25;;;;;;;12.30;6.60;;;;;;;11.08;88.76;101528.76;108117;1287;21985;-63
2023/12/18 07:32:50;;;;;;;9.90;6.70;;;;;;;11.12;88.41;101523.15;108076;1287;21982;-62
2023/12/18 07:35:16;;;;;;;7.90;5.10;;;;;;;11.13;87.15;101520.34;108106;1287;21995;-60
2023/12/18 07:37:42;;;;;;;9.60;5.60;;;;;;;11.16;86.67;101518.58;108106;1286;21989;-62
2023/12/18 07:40:08;;;;;;;8.50;5.20;;;;;;;11.21;86.99;101515.11;108062;1287;21997;-61
2023/12/18 07:42:34;;;;;;;9.20;5.50;;;;;;;11.22;86.15;101517.05;108043;1287;21984;-64
2023/12/18 07:44:59;;;;;;;7.90;5.30;;;;;;;11.23;85.54;101515.30;108074;1281;21986;-61
2023/12/18 07:47:25;;;;;;;8.60;5.20;;;;;;;11.22;84.64;101511.08;108042;1287;21987;-62
2023/12/18 07:49:51;;;;;;;8.80;5.30;;;;;;;11.23;84.55;101514.23;108086;1283;21991;-63
2023/12/18 07:52:16;;;;;;;7.30;4.80;;;;;;;11.22;84.02;101514.94;108101;1287;21993;-63
2023/12/18 07:54:42;;;;;;;8.80;5.40;;;;;;;11.19;83.50;101514.04;108098;1277;22026;-63
2023/12/18 07:57:07;;;;;;;7.20;5.10;;;;;;;11.19;83.44;101509.31;108079;1281;21989;-64
2023/12/18 07:59:36;;;;;;;8.80;5.50;;;;;;;11.19;83.32;101507.73;108096;1287;21986;-60
2023/12/18 08:02:02;;;;;;;9.00;5.20;;;;;;;11.22;83.84;101504.22;108111;1283;21984;-61
2023/12/18 08:04:28;;;;;;;7.70;4.80;;;;;;;11.27;84.31;101505.10;108177;1284;21998;-63
2023/12/18 08:06:54;;;;;;;8.60;4.90;;;;;;;11.32;84.56;101505.64;108115;1287;22884;-63
2023/12/18 08:09:19;;;;;;;10.20;5.60;;;;;;;11.38;84.95;101504.25;108153;1277;23055;-61
2023/12/18 08:11:45;;;;;;;8.70;4.70;;;;;;;11.44;84.98;101503.91;108111;1287;21989;-64
2023/12/18 08:14:11;;;;;;;8.70;5.50;;;;;;;11.46;83.91;101511.48;108084;1287;21991;-60
2023/12/18 08:16:36;;;;;;;8.10;4.70;;;;;;;11.52;84.33;101520.80;108035;1287;21993;-63
2023/12/18 08:19:02;;;;;;;9.40;5.20;;;;;;;11.59;84.90;101528.02;108081;1287;21999;-60
2023/12/18 08:21:28;;;;;;;9.80;4.80;;;;;;;11.66;85.13;101529.45;108116;1287;21986;-62
2023/12/18 08:23:53;;;;;;;8.20;4.90;;;;;;;11.73;85.53;101527.34;108095;1287;21996;-60
2023/12/18 08:26:19;;;;;;;10.20;5.60;;;;;;;11.82;85.89;101517.15;108097;1287;21994;-60
2023/12/18 08:28:45;;;;;;;8.90;4.90;;;;;;;11.89;85.19;101512.59;108116;1288;21995;-62
2023/12/18 08:31:11;;;;;;;11.00;5.40;;;;;;;11.95;84.27;101507.14;108115;1283;21997;-63
2023/12/18 08:33:38;;;;;;;9.30;5.60;;;;;;;11.99;84.00;101502.05;108074;1288;21979;-61
2023/12/18 08:36:04;;;;;;;9.30;5.40;;;;;;;12.04;83.95;101499.77;108071;1288;21991;-60
2023/12/18 08:38:30;;;;;;;10.70;6.20;;;;;;;12.10;83.73;101502.41;108101;1287;22101;-60
2023/12/18 08:40:56;;;;;;;8.00;4.60;;;;;;;12.16;83.87;101502.57;108117;1288;22009;-60
2023/12/18 08:43:21;;;;;;;11.10;6.80;;;;;;;12.17;82.48;101495.71;108159;1287;21980;-60
2023/12/18 08:45:47;;;;;;;8.90;5.40;;;;;;;12.19;81.78;101493.96;108126;1287;21992;-63
2023/12/18 08:48:13;;;;;;;8.50;4.60;;;;;;;12.23;82.83;101493.95;108108;1287;21996;-61
2023/12/18 08:50:39;;;;;;;7.90;5.00;;;;;;;12.28;82.51;101494.30;108140;1287;22468;-61
2023/12/18 08:53:04;;;;;;;11.10;6.60;;;;;;;12.33;82.75;101490.60;108033;1278;21988;-63
2023/12/18 08:55:30;;;;;;;15.60;9.30;;;;;;;12.42;83.81;101482.84;108057;1287;21985;-61
2023/12/18 08:57:56;;;;;;;48.60;30.10;;;;;;;12.51;84.20;101474.89;108104;1287;21988;-61
2023/12/18 09:00:22;;;;;;;33.80;21.70;;;;;;;12.60;83.90;101463.58;108070;1284;21987;-61
2023/12/18 09:02:48;;;;;;;36.70;21.40;;;;;;;12.65;82.69;101461.28;108154;1287;21951;-61
2023/12/18 09:05:13;;;;;;;24.60;14.20;;;;;;;12.75;83.16;101464.95;108105;1287;22011;-63
2023/12/18 09:07:39;;;;;;;9.20;5.00;;;;;;;12.81;82.85;101461.58;108053;1287;22044;-64
2023/12/18 09:10:06;;;;;;;9.40;5.40;;;;;;;12.85;82.06;101456.10;108068;1287;21996;-61
2023/12/18 09:12:32;;;;;;;9.00;4.60;;;;;;;12.89;82.19;101447.63;108117;1287;23638;-63
2023/12/18 09:14:58;;;;;;;10.90;4.70;;;;;;;12.93;81.89;101440.39;108086;1287;21987;-61
2023/12/18 09:17:23;;;;;;;7.10;4.30;;;;;;;12.99;82.32;101435.95;108094;1284;22079;-63
2023/12/18 09:19:49;;;;;;;6.90;4.00;;;;;;;13.04;81.95;101427.45;108062;1284;22238;-61
2023/12/18 09:22:15;;;;;;;10.30;4.50;;;;;;;13.07;80.75;101427.45;108070;1287;21985;-61
2023/12/18 09:24:41;;;;;;;7.90;4.40;;;;;;;13.10;80.35;101424.26;108069;1287;21993;-62
2023/12/18 09:27:09;;;;;;;7.00;4.10;;;;;;;13.15;80.76;101419.47;108137;1287;21989;-61
2023/12/18 09:29:35;;;;;;;9.00;4.80;;;;;;;13.12;78.86;101425.66;108061;1287;21982;-61
2023/12/18 09:32:02;;;;;;;7.70;4.00;;;;;;;13.12;79.48;101418.08;108131;1284;21981;-63
2023/12/18 09:34:28;;;;;;;7.20;4.50;;;;;;;13.14;78.96;101416.48;108064;1284;22042;-63
2023/12/18 09:36:54;;;;;;;6.70;4.20;;;;;;;13.13;77.98;101409.44;107815;1287;23624;-62
2023/12/18 09:39:20;;;;;;;6.20;4.20;;;;;;;13.16;78.48;101408.71;108057;1287;21983;-63
2023/12/18 09:41:46;;;;;;;10.90;6.10;;;;;;;13.20;78.96;101412.21;108056;1287;22361;-62
2023/12/18 09:44:11;;;;;;;8.00;4.40;;;;;;;13.23;78.71;101407.79;108074;1287;21985;-61
2023/12/18 09:46:37;;;;;;;11.00;6.70;;;;;;;13.27;78.95;101406.17;108064;1287;21989;-64
2023/12/18 09:49:03;;;;;;;23.30;14.20;;;;;;;13.32;78.98;101402.79;108005;1287;22023;-61
2023/12/18 09:51:29;;;;;;;17.30;9.60;;;;;;;13.37;78.24;101405.05;108071;1287;23638;-64
2023/12/18 09:53:54;;;;;;;13.90;8.50;;;;;;;13.41;77.49;101399.57;107895;1287;21987;-61
2023/12/18 09:56:21;;;;;;;9.80;5.70;;;;;;;13.50;78.18;101392.80;108084;1287;21992;-63
2023/12/18 09:58:46;;;;;;;9.30;5.80;;;;;;;13.60;78.34;101399.95;108072;1288;22011;-62
2023/12/18 10:01:13;;;;;;;8.10;5.40;;;;;;;13.71;78.24;101395.45;108162;1288;21988;-63
2023/12/18 10:03:39;;;;;;;6.40;4.20;;;;;;;13.72;74.57;101392.08;108178;1274;21998;-63
2023/12/18 10:06:05;;;;;;;9.60;5.40;;;;;;;13.88;75.61;101388.06;108255;1287;21993;-63
2023/12/18 10:08:31;;;;;;;7.80;4.70;;;;;;;14.07;77.16;101391.21;107992;1288;22160;-63
2023/12/18 10:10:57;;;;;;;8.00;4.80;;;;;;;14.20;75.28;101384.71;108108;1286;21978;-62
2023/12/18 10:13:26;;;;;;;6.90;4.10;;;;;;;14.27;74.21;101375.81;108185;1276;21964;-63
2023/12/18 10:15:53;;;;;;;7.20;4.90;;;;;;;14.37;74.69;101372.52;108127;1275;22030;-62
2023/12/18 10:18:21;;;;;;;7.10;4.60;;;;;;;14.38;72.91;101382.56;108140;1277;21984;-64
2023/12/18 10:20:48;;;;;;;8.20;4.90;;;;;;;14.37;71.96;101380.12;108145;1287;21989;-60
2023/12/18 10:23:14;;;;;;;13.80;4.40;;;;;;;14.31;70.97;101369.42;108121;1287;21989;-62
2023/12/18 10:25:39;;;;;;;6.30;4.00;;;;;;;14.39;74.61;101364.91;108115;1287;21996;-63
2023/12/18 10:28:06;;;;;;;6.60;4.20;;;;;;;14.41;73.41;101363.64;108090;1287;21999;-63
2023/12/18 10:30:34;;;;;;;6.00;4.20;;;;;;;14.43;73.17;101356.90;108161;1287;23069;-61
2023/12/18 10:33:05;;;;;;;7.80;5.70;;;;;;;14.43;71.71;101351.80;108105;1287;21996;-61
2023/12/18 10:35:34;;;;;;;13.70;9.90;;;;;;;14.43;71.26;101354.43;108117;1287;21987;-61
2023/12/18 10:38:00;;;;;;;7.80;4.90;;;;;;;14.46;71.67;101348.92;107835;1288;21996;-61
2023/12/18 10:40:27;;;;;;;9.90;6.40;;;;;;;14.46;71.10;101346.09;108076;1287;21998;-61
2023/12/18 10:43:04;;;;;;;12.30;8.50;;;;;;;14.47;71.10;101346.63;108123;1278;22001;-63
2023/12/18 10:45:30;;;;;;;10.70;7.10;;;;;;;14.48;71.85;101337.08;107960;1288;24346;-61
2023/12/18 10:47:56;;;;;;;9.10;5.20;;;;;;;14.50;73.28;101334.75;107994;1288;22455;-62
2023/12/18 10:50:22;;;;;;;7.00;4.80;;;;;;;14.53;71.49;101333.66;108027;1287;21989;-60
2023/12/18 10:52:48;;;;;;;8.70;6.20;;;;;;;14.57;71.67;101325.48;107977;1287;21986;-61
2023/12/18 10:55:14;;;;;;;6.60;4.60;;;;;;;14.54;70.39;101320.21;108154;1287;21989;-62
2023/12/18 10:57:42;;;;;;;7.10;4.60;;;;;;;14.59;71.63;101315.36;108059;1287;22024;-61
2023/12/18 11:00:08;;;;;;;8.20;4.80;;;;;;;14.61;71.12;101313.75;108192;1286;23061;-61
2023/12/18 11:02:34;;;;;;;8.80;5.60;;;;;;;14.63;71.24;101309.14;108090;1287;22026;-63